Time;durP1;ratioP1;P1;durP2;ratioP2;P2;SDS_P1;SDS_P2;PMS_P1;PMS_P2;Temp;Humidity;BMP_temperature;BMP_pressure;BME280_temperature;BME280_humidity;BME280_pressure;Samples;Min_cycle;Max_cycle;Signal;HPM_P1;HPM_P2
2022/09/23 00:02:06;;;;;;;1.25;1.10;;;;;;;;;;4509374;28;20046;-67
2022/09/23 00:04:16;;;;;;;1.27;1.08;;;;;;;;;;4498893;28;20032;-66
2022/09/23 00:06:29;;;;;;;1.02;0.90;;;;;;;;;;4509953;28;29203;-66
2022/09/23 00:08:40;;;;;;;1.65;1.30;;;;;;;;;;4483215;28;20038;-67
2022/09/23 00:10:51;;;;;;;1.77;1.27;;;;;;;;;;4492374;28;20034;-67
2022/09/23 00:13:01;;;;;;;1.30;0.98;;;;;;;;;;4491268;28;20042;-66
2022/09/23 00:15:12;;;;;;;1.23;1.00;;;;;;;;;;4503899;28;20100;-67
2022/09/23 00:17:22;;;;;;;1.63;1.10;;;;;;;;;;4507523;28;20068;-67
2022/09/23 00:19:32;;;;;;;2.03;1.20;;;;;;;;;;4508519;28;20109;-66
2022/09/23 00:21:43;;;;;;;1.52;1.00;;;;;;;;;;4508769;28;20050;-67
2022/09/23 00:23:53;;;;;;;2.05;1.00;;;;;;;;;;4508600;28;20113;-67
2022/09/23 00:26:06;;;;;;;1.17;1.08;;;;;;;;;;4491937;28;20129;-66
2022/09/23 00:28:16;;;;;;;0.95;0.93;;;;;;;;;;4502786;28;20040;-67
2022/09/23 00:30:27;;;;;;;1.23;1.10;;;;;;;;;;4509856;28;20700;-67
2022/09/23 00:32:39;;;;;;;1.42;1.00;;;;;;;;;;4508658;28;20032;-67
2022/09/23 00:34:50;;;;;;;1.10;1.00;;;;;;;;;;4507874;28;20040;-66
2022/09/23 00:37:00;;;;;;;1.38;1.00;;;;;;;;;;4510402;28;20033;-66
2022/09/23 00:39:11;;;;;;;1.05;0.90;;;;;;;;;;4510138;28;20480;-67
2022/09/23 00:41:22;;;;;;;1.20;0.90;;;;;;;;;;4511109;28;20416;-68
2022/09/23 00:43:40;;;;;;;1.80;1.10;;;;;;;;;;4494903;28;20051;-67
2022/09/23 00:45:50;;;;;;;1.35;1.00;;;;;;;;;;4507542;28;20041;-67
2022/09/23 00:48:01;;;;;;;1.05;0.95;;;;;;;;;;4510138;28;20053;-67
2022/09/23 00:50:38;;;;;;;1.80;1.00;;;;;;;;;;4505985;28;20136;-66
2022/09/23 00:52:50;;;;;;;1.45;0.98;;;;;;;;;;4510324;28;20044;-67
2022/09/23 00:55:05;;;;;;;1.13;1.02;;;;;;;;;;4491385;28;20172;-67
2022/09/23 00:57:16;;;;;;;2.22;1.17;;;;;;;;;;4491249;28;20030;-66
2022/09/23 00:59:27;;;;;;;1.35;1.05;;;;;;;;;;4485875;28;20149;-67
2022/09/23 01:01:38;;;;;;;1.00;0.90;;;;;;;;;;4490538;28;20046;-68
2022/09/23 01:03:49;;;;;;;1.05;0.93;;;;;;;;;;4508664;28;23935;-67
2022/09/23 01:05:59;;;;;;;1.30;0.90;;;;;;;;;;4487430;28;20093;-66
2022/09/23 01:08:10;;;;;;;1.10;0.90;;;;;;;;;;4509805;28;20030;-67
2022/09/23 01:10:22;;;;;;;1.00;0.73;;;;;;;;;;4508427;28;20787;-66
2022/09/23 01:12:53;;;;;;;1.23;1.05;;;;;;;;;;4509462;28;20037;-67
2022/09/23 01:15:35;;;;;;;1.55;1.08;;;;;;;;;;4508908;28;20123;-67
2022/09/23 01:17:55;;;;;;;0.93;0.93;;;;;;;;;;4483582;28;20038;-66
2022/09/23 01:20:40;;;;;;;1.20;1.00;;;;;;;;;;4509230;28;20629;-67
2022/09/23 01:23:06;;;;;;;1.02;0.90;;;;;;;;;;4509302;28;20058;-67
2022/09/23 01:25:36;;;;;;;1.33;1.00;;;;;;;;;;4509061;28;20637;-66
2022/09/23 01:28:02;;;;;;;1.20;0.93;;;;;;;;;;4499414;28;20488;-67
2022/09/23 01:30:35;;;;;;;1.10;1.00;;;;;;;;;;4509577;28;20879;-66
2022/09/23 01:33:12;;;;;;;1.00;0.90;;;;;;;;;;4489652;28;20057;-67
2022/09/23 01:35:29;;;;;;;0.90;0.80;;;;;;;;;;4502466;28;20140;-66
2022/09/23 01:37:47;;;;;;;1.20;0.98;;;;;;;;;;4511194;28;20030;-66
2022/09/23 01:40:17;;;;;;;0.88;0.88;;;;;;;;;;4504747;28;20145;-66
2022/09/23 01:42:41;;;;;;;1.10;1.00;;;;;;;;;;4503094;28;20097;-66
2022/09/23 01:44:56;;;;;;;0.88;0.88;;;;;;;;;;4494190;28;20213;-66
2022/09/23 01:47:09;;;;;;;1.25;1.10;;;;;;;;;;4513965;28;20692;-66
2022/09/23 01:49:20;;;;;;;1.10;1.00;;;;;;;;;;4511633;28;20038;-67
2022/09/23 01:51:34;;;;;;;1.35;0.80;;;;;;;;;;4510408;28;20041;-67
2022/09/23 01:53:52;;;;;;;1.33;1.02;;;;;;;;;;4498053;28;20040;-67
2022/09/23 01:56:08;;;;;;;1.20;0.98;;;;;;;;;;4512413;28;20030;-66
2022/09/23 01:58:25;;;;;;;2.67;0.90;;;;;;;;;;4511569;28;20534;-67
2022/09/23 02:00:39;;;;;;;0.77;0.77;;;;;;;;;;4513497;28;20825;-67
2022/09/23 02:03:14;;;;;;;0.88;0.80;;;;;;;;;;4509602;28;20124;-67
2022/09/23 02:05:29;;;;;;;0.80;0.80;;;;;;;;;;4499535;28;20594;-66
2022/09/23 02:07:44;;;;;;;0.82;0.82;;;;;;;;;;4510885;28;20191;-66
2022/09/23 02:10:06;;;;;;;0.93;0.90;;;;;;;;;;4510427;28;20034;-66
2022/09/23 02:12:19;;;;;;;1.58;1.00;;;;;;;;;;4487431;28;20325;-67
2022/09/23 02:14:38;;;;;;;1.08;1.00;;;;;;;;;;4492944;28;20096;-66
2022/09/23 02:16:55;;;;;;;1.30;1.00;;;;;;;;;;4495257;28;21236;-67
2022/09/23 02:19:10;;;;;;;1.00;0.90;;;;;;;;;;4497915;28;20292;-66
2022/09/23 02:21:24;;;;;;;1.45;0.90;;;;;;;;;;4488994;28;20198;-67
2022/09/23 02:23:42;;;;;;;1.15;1.00;;;;;;;;;;4503485;28;20073;-66
2022/09/23 02:26:06;;;;;;;1.00;0.80;;;;;;;;;;4494012;28;20769;-66
2022/09/23 02:28:33;;;;;;;1.15;0.80;;;;;;;;;;4503309;28;20161;-67
2022/09/23 02:31:06;;;;;;;1.10;1.00;;;;;;;;;;4512898;28;20041;-67
2022/09/23 02:33:23;;;;;;;1.20;0.95;;;;;;;;;;4505645;28;20037;-66
2022/09/23 02:35:40;;;;;;;0.82;0.82;;;;;;;;;;4495752;28;20026;-66
2022/09/23 02:38:01;;;;;;;;;;;;;;;;;;4513607;28;20033;-66
2022/09/23 02:40:14;;;;;;;1.10;1.00;;;;;;;;;;4512631;28;19921;-66
2022/09/23 02:42:37;;;;;;;1.00;0.80;;;;;;;;;;4511107;28;20049;-66
2022/09/23 02:44:47;;;;;;;0.88;0.82;;;;;;;;;;4511322;28;20675;-66
2022/09/23 02:46:58;;;;;;;1.00;0.90;;;;;;;;;;4509691;28;20033;-66
2022/09/23 02:49:18;;;;;;;1.60;0.90;;;;;;;;;;4511419;28;20953;-66
2022/09/23 02:51:28;;;;;;;1.15;0.80;;;;;;;;;;4510629;28;20049;-66
2022/09/23 02:53:39;;;;;;;0.80;0.80;;;;;;;;;;4495898;28;20041;-66
2022/09/23 02:55:50;;;;;;;0.90;0.90;;;;;;;;;;4510513;28;20030;-67
2022/09/23 02:58:02;;;;;;;0.85;0.80;;;;;;;;;;4511873;28;20075;-66
2022/09/23 03:00:13;;;;;;;0.85;0.80;;;;;;;;;;4510963;28;20040;-67
2022/09/23 03:02:42;;;;;;;0.85;0.85;;;;;;;;;;4509484;28;20120;-67
2022/09/23 03:05:02;;;;;;;1.00;0.82;;;;;;;;;;4510840;28;20032;-66
2022/09/23 03:07:25;;;;;;;1.23;0.82;;;;;;;;;;4509511;28;20155;-66
2022/09/23 03:09:44;;;;;;;1.98;0.82;;;;;;;;;;4510339;28;20152;-66
2022/09/23 03:12:33;;;;;;;0.93;0.82;;;;;;;;;;4509737;28;20022;-67
2022/09/23 03:14:53;;;;;;;;;;;;;;;;;;4511089;28;20067;-66
2022/09/23 03:17:11;;;;;;;1.00;0.90;;;;;;;;;;4509813;28;19928;-66
2022/09/23 03:19:31;;;;;;;1.08;0.80;;;;;;;;;;4497969;28;20192;-67
2022/09/23 03:21:52;;;;;;;1.00;0.80;;;;;;;;;;4511911;28;20892;-67
2022/09/23 03:24:05;;;;;;;1.27;0.73;;;;;;;;;;4502988;28;21235;-66
2022/09/23 03:26:20;;;;;;;0.85;0.80;;;;;;;;;;4502189;28;21467;-66
2022/09/23 03:28:34;;;;;;;1.15;0.75;;;;;;;;;;4510591;28;20686;-67
2022/09/23 03:30:45;;;;;;;0.80;0.80;;;;;;;;;;4510640;28;20051;-67
2022/09/23 03:32:59;;;;;;;0.95;0.85;;;;;;;;;;4510966;28;20991;-66
2022/09/23 03:35:10;;;;;;;1.00;0.90;;;;;;;;;;4509953;28;20045;-66
2022/09/23 03:37:29;;;;;;;0.65;0.65;;;;;;;;;;4509730;28;20038;-67
2022/09/23 03:39:42;;;;;;;0.77;0.75;;;;;;;;;;4509931;28;20866;-66
2022/09/23 03:41:56;;;;;;;1.13;0.80;;;;;;;;;;4497408;28;20046;-68
2022/09/23 03:44:07;;;;;;;0.80;0.80;;;;;;;;;;4510199;28;20063;-67
2022/09/23 03:46:18;;;;;;;1.70;0.90;;;;;;;;;;4508721;28;20029;-68
2022/09/23 03:48:28;;;;;;;1.20;0.90;;;;;;;;;;4509041;28;20070;-67
2022/09/23 03:50:39;;;;;;;0.80;0.80;;;;;;;;;;4491471;28;20317;-67
2022/09/23 03:52:49;;;;;;;0.90;0.88;;;;;;;;;;4509936;28;20029;-67
2022/09/23 03:55:00;;;;;;;1.75;0.90;;;;;;;;;;4501607;28;20506;-67
2022/09/23 03:57:11;;;;;;;1.23;0.90;;;;;;;;;;4510385;28;20387;-66
2022/09/23 03:59:21;;;;;;;0.80;0.70;;;;;;;;;;4509519;28;20042;-67
2022/09/23 04:01:32;;;;;;;0.77;0.70;;;;;;;;;;4509238;28;20073;-67
2022/09/23 04:03:42;;;;;;;0.73;0.70;;;;;;;;;;4490131;28;20590;-66
2022/09/23 04:05:53;;;;;;;1.40;0.95;;;;;;;;;;4508157;28;20058;-66
2022/09/23 04:08:03;;;;;;;1.15;0.80;;;;;;;;;;4509720;28;20065;-66
2022/09/23 04:10:14;;;;;;;0.90;0.80;;;;;;;;;;4509150;28;25940;-66
2022/09/23 04:12:24;;;;;;;1.60;0.88;;;;;;;;;;4501778;28;20029;-67
2022/09/23 04:14:35;;;;;;;0.80;0.80;;;;;;;;;;4510558;28;20526;-67
2022/09/23 04:16:46;;;;;;;1.10;0.90;;;;;;;;;;4508069;28;20037;-67
2022/09/23 04:18:57;;;;;;;1.40;0.88;;;;;;;;;;4492247;28;20046;-66
2022/09/23 04:21:07;;;;;;;1.35;0.82;;;;;;;;;;4503373;28;20470;-66
2022/09/23 04:23:17;;;;;;;0.70;0.70;;;;;;;;;;4507802;28;20061;-67
2022/09/23 04:25:28;;;;;;;0.73;0.73;;;;;;;;;;4509115;28;20547;-66
2022/09/23 04:27:38;;;;;;;1.10;0.82;;;;;;;;;;4510642;28;20029;-66
2022/09/23 04:29:49;;;;;;;1.05;0.88;;;;;;;;;;4509224;28;20049;-67
2022/09/23 04:32:00;;;;;;;1.00;0.90;;;;;;;;;;4505325;28;20029;-67
2022/09/23 04:34:11;;;;;;;1.77;1.00;;;;;;;;;;4508292;28;20025;-66
2022/09/23 04:36:21;;;;;;;1.15;0.95;;;;;;;;;;4494951;28;20590;-67
2022/09/23 04:38:32;;;;;;;1.00;0.80;;;;;;;;;;4508796;28;20068;-66
2022/09/23 04:40:42;;;;;;;1.38;1.23;;;;;;;;;;4507874;28;20042;-66
2022/09/23 04:42:53;;;;;;;1.20;1.10;;;;;;;;;;4509095;28;21098;-66
2022/09/23 04:45:04;;;;;;;1.08;0.90;;;;;;;;;;4508578;28;20037;-66
2022/09/23 04:47:14;;;;;;;1.10;0.90;;;;;;;;;;4509395;28;20033;-66
2022/09/23 04:49:25;;;;;;;1.75;0.90;;;;;;;;;;4508617;28;20017;-67
2022/09/23 04:51:35;;;;;;;0.77;0.70;;;;;;;;;;4508995;28;35233;-66
2022/09/23 04:53:47;;;;;;;1.02;0.93;;;;;;;;;;4509786;28;20188;-67
2022/09/23 04:56:06;;;;;;;0.80;0.80;;;;;;;;;;4508414;28;20030;-67
2022/09/23 04:58:16;;;;;;;1.00;0.90;;;;;;;;;;4511463;28;20119;-67
2022/09/23 05:00:27;;;;;;;0.93;0.82;;;;;;;;;;4508448;28;28803;-66
2022/09/23 05:02:42;;;;;;;1.13;0.80;;;;;;;;;;4500886;28;20046;-66
2022/09/23 05:04:53;;;;;;;0.98;0.70;;;;;;;;;;4493638;28;20037;-66
2022/09/23 05:07:04;;;;;;;0.88;0.70;;;;;;;;;;4491338;28;20068;-66
2022/09/23 05:09:16;;;;;;;1.05;0.85;;;;;;;;;;4509359;28;20068;-66
2022/09/23 05:11:28;;;;;;;1.10;0.90;;;;;;;;;;4511968;28;20041;-66
2022/09/23 05:13:39;;;;;;;1.10;0.90;;;;;;;;;;4512922;28;20088;-66
2022/09/23 05:15:59;;;;;;;1.20;0.70;;;;;;;;;;4511607;28;20129;-66
2022/09/23 05:18:10;;;;;;;1.25;0.80;;;;;;;;;;4511766;28;20041;-67
2022/09/23 05:20:20;;;;;;;1.02;0.70;;;;;;;;;;4511990;28;31440;-66
2022/09/23 05:22:31;;;;;;;0.90;0.80;;;;;;;;;;4502850;28;20049;-66
2022/09/23 05:24:41;;;;;;;1.40;1.00;;;;;;;;;;4512647;28;20033;-66
2022/09/23 05:26:53;;;;;;;1.20;0.85;;;;;;;;;;4511430;28;30154;-66
2022/09/23 05:29:03;;;;;;;1.33;0.98;;;;;;;;;;4512205;28;20038;-66
2022/09/23 05:31:16;;;;;;;1.08;0.90;;;;;;;;;;4494227;28;20026;-66
2022/09/23 05:33:27;;;;;;;1.10;1.00;;;;;;;;;;4494077;28;20034;-66
2022/09/23 05:35:37;;;;;;;1.00;0.90;;;;;;;;;;4511377;28;20022;-67
2022/09/23 05:37:47;;;;;;;1.38;0.95;;;;;;;;;;4512872;28;20528;-66
2022/09/23 05:39:58;;;;;;;1.55;1.00;;;;;;;;;;4510445;28;20038;-66
2022/09/23 05:42:08;;;;;;;1.73;1.05;;;;;;;;;;4510074;28;27141;-66
2022/09/23 05:44:19;;;;;;;2.03;1.10;;;;;;;;;;4509584;28;20103;-66
2022/09/23 05:46:30;;;;;;;1.83;1.30;;;;;;;;;;4510193;28;20034;-66
2022/09/23 05:48:41;;;;;;;1.60;1.13;;;;;;;;;;4510178;28;20053;-66
2022/09/23 05:50:52;;;;;;;1.30;1.10;;;;;;;;;;4512218;28;20132;-66
2022/09/23 05:53:02;;;;;;;1.13;1.00;;;;;;;;;;4511086;28;29034;-66
2022/09/23 05:55:13;;;;;;;1.30;1.00;;;;;;;;;;4510722;28;20530;-66
2022/09/23 05:57:24;;;;;;;1.23;1.10;;;;;;;;;;4510851;28;20038;-66
2022/09/23 05:59:34;;;;;;;1.63;0.90;;;;;;;;;;4498717;28;20038;-66
2022/09/23 06:01:45;;;;;;;1.00;0.90;;;;;;;;;;4512167;28;20029;-66
2022/09/23 06:03:56;;;;;;;1.20;1.00;;;;;;;;;;4495871;28;20045;-66
2022/09/23 06:06:11;;;;;;;1.30;1.10;;;;;;;;;;4510495;28;20033;-66
2022/09/23 06:08:22;;;;;;;2.10;1.02;;;;;;;;;;4511107;28;20060;-65
2022/09/23 06:10:40;;;;;;;1.67;1.02;;;;;;;;;;4502383;28;20475;-66
2022/09/23 06:12:51;;;;;;;1.58;1.10;;;;;;;;;;4509666;28;20033;-66
2022/09/23 06:15:02;;;;;;;1.52;1.10;;;;;;;;;;4509569;28;20810;-66
2022/09/23 06:17:12;;;;;;;1.30;0.85;;;;;;;;;;4510312;28;20044;-67
2022/09/23 06:19:22;;;;;;;1.23;0.88;;;;;;;;;;4491364;28;20466;-66
2022/09/23 06:21:35;;;;;;;1.25;1.10;;;;;;;;;;4510213;28;20044;-66
2022/09/23 06:23:46;;;;;;;1.10;1.00;;;;;;;;;;4497119;28;20038;-66
2022/09/23 06:26:00;;;;;;;1.10;0.98;;;;;;;;;;4508017;28;20037;-66
2022/09/23 06:28:12;;;;;;;1.83;1.20;;;;;;;;;;4511069;28;20037;-67
2022/09/23 06:30:23;;;;;;;1.20;1.10;;;;;;;;;;4510695;28;20041;-67
2022/09/23 06:32:34;;;;;;;1.15;1.05;;;;;;;;;;4510691;28;20033;-66
2022/09/23 06:34:44;;;;;;;1.48;1.10;;;;;;;;;;4511147;28;20041;-66
2022/09/23 06:36:55;;;;;;;1.50;1.00;;;;;;;;;;4492964;28;20170;-66
2022/09/23 06:39:05;;;;;;;1.55;1.10;;;;;;;;;;4511560;28;20044;-66
2022/09/23 06:41:16;;;;;;;1.20;1.10;;;;;;;;;;4511217;28;20384;-66
2022/09/23 06:43:26;;;;;;;2.30;1.10;;;;;;;;;;4509379;28;20041;-66
2022/09/23 06:45:36;;;;;;;1.20;1.02;;;;;;;;;;4510083;28;20041;-66
2022/09/23 06:47:52;;;;;;;1.20;1.10;;;;;;;;;;4509693;28;20026;-66
2022/09/23 06:50:03;;;;;;;1.40;1.20;;;;;;;;;;4510353;28;20036;-66
2022/09/23 06:52:14;;;;;;;1.65;0.98;;;;;;;;;;4510480;28;20582;-66
2022/09/23 06:54:27;;;;;;;1.27;1.17;;;;;;;;;;4493359;28;20125;-65
2022/09/23 06:56:38;;;;;;;1.60;1.20;;;;;;;;;;4508837;28;20030;-66
2022/09/23 06:58:50;;;;;;;1.13;1.00;;;;;;;;;;4510805;28;20042;-66
2022/09/23 07:01:06;;;;;;;1.35;1.25;;;;;;;;;;4493440;28;20023;-66
2022/09/23 07:03:16;;;;;;;1.77;0.90;;;;;;;;;;4510042;28;20611;-67
2022/09/23 07:05:26;;;;;;;1.30;1.10;;;;;;;;;;4497298;28;20139;-66
2022/09/23 07:07:38;;;;;;;1.27;1.10;;;;;;;;;;4510487;28;20487;-66
2022/09/23 07:09:48;;;;;;;1.60;1.45;;;;;;;;;;4511238;28;20666;-67
2022/09/23 07:11:59;;;;;;;1.50;1.40;;;;;;;;;;4509867;28;20030;-66
2022/09/23 07:14:09;;;;;;;1.40;1.30;;;;;;;;;;4510495;28;23443;-66
2022/09/23 07:16:20;;;;;;;1.23;1.13;;;;;;;;;;4512599;28;20565;-66
2022/09/23 07:18:32;;;;;;;1.75;1.27;;;;;;;;;;4512053;28;20120;-67
2022/09/23 07:20:43;;;;;;;1.33;1.20;;;;;;;;;;4511567;28;20021;-66
2022/09/23 07:22:53;;;;;;;1.40;1.15;;;;;;;;;;4507916;28;20049;-66
2022/09/23 07:25:05;;;;;;;1.60;1.40;;;;;;;;;;4510289;28;20096;-66
2022/09/23 07:27:18;;;;;;;1.60;1.30;;;;;;;;;;4511046;28;20263;-66
2022/09/23 07:29:28;;;;;;;2.45;1.50;;;;;;;;;;4486608;28;20681;-66
2022/09/23 07:31:39;;;;;;;1.30;1.20;;;;;;;;;;4490812;28;20610;-66
2022/09/23 07:33:55;;;;;;;1.75;1.23;;;;;;;;;;4495002;28;20493;-66
2022/09/23 07:36:08;;;;;;;1.30;1.20;;;;;;;;;;4510939;28;20026;-66
2022/09/23 07:38:19;;;;;;;1.80;1.33;;;;;;;;;;4509667;28;20810;-66
2022/09/23 07:40:29;;;;;;;1.40;1.30;;;;;;;;;;4509537;28;20397;-66
2022/09/23 07:42:40;;;;;;;1.50;1.27;;;;;;;;;;4511468;28;20972;-66
2022/09/23 07:44:51;;;;;;;1.40;1.30;;;;;;;;;;4495458;28;27703;-66
2022/09/23 07:47:01;;;;;;;1.60;1.30;;;;;;;;;;4511880;28;20033;-66
2022/09/23 07:49:12;;;;;;;1.70;1.23;;;;;;;;;;4511668;28;20038;-66
2022/09/23 07:51:31;;;;;;;2.08;1.17;;;;;;;;;;4511402;28;20381;-67
2022/09/23 07:53:46;;;;;;;1.95;1.50;;;;;;;;;;4510020;28;20038;-66
2022/09/23 07:55:56;;;;;;;2.00;1.45;;;;;;;;;;4509784;28;20401;-66
2022/09/23 07:58:07;;;;;;;1.50;1.20;;;;;;;;;;4510446;28;20038;-66
2022/09/23 08:00:18;;;;;;;1.60;1.40;;;;;;;;;;4510036;28;20454;-66
2022/09/23 08:02:28;;;;;;;1.70;1.20;;;;;;;;;;4509966;28;20033;-67
2022/09/23 08:04:39;;;;;;;1.90;1.30;;;;;;;;;;4510170;28;20060;-66
2022/09/23 08:06:53;;;;;;;1.45;1.33;;;;;;;;;;4509234;28;20594;-66
2022/09/23 08:09:03;;;;;;;1.83;1.40;;;;;;;;;;4510212;28;20061;-66
2022/09/23 08:11:13;;;;;;;1.30;1.20;;;;;;;;;;4510254;28;20467;-66
2022/09/23 08:13:24;;;;;;;1.70;1.52;;;;;;;;;;4510497;28;20312;-66
2022/09/23 08:15:34;;;;;;;1.50;1.40;;;;;;;;;;4510624;28;20121;-66
2022/09/23 08:17:45;;;;;;;1.88;1.30;;;;;;;;;;4501944;28;20522;-66
2022/09/23 08:19:55;;;;;;;1.77;1.38;;;;;;;;;;4491750;28;20030;-66
2022/09/23 08:22:05;;;;;;;1.40;1.27;;;;;;;;;;4500705;28;20638;-66
2022/09/23 08:24:22;;;;;;;1.80;1.33;;;;;;;;;;4509327;28;20037;-66
2022/09/23 08:26:33;;;;;;;2.10;1.60;;;;;;;;;;4510681;28;20069;-66
2022/09/23 08:28:44;;;;;;;1.73;1.27;;;;;;;;;;4509202;28;20124;-67
2022/09/23 08:30:54;;;;;;;1.88;1.45;;;;;;;;;;4510253;28;20028;-66
2022/09/23 08:33:05;;;;;;;1.60;1.40;;;;;;;;;;4502509;28;20046;-67
2022/09/23 08:35:15;;;;;;;1.60;1.50;;;;;;;;;;4496260;28;24367;-66
2022/09/23 08:37:26;;;;;;;1.60;1.40;;;;;;;;;;4508613;28;20107;-66
2022/09/23 08:39:36;;;;;;;1.92;1.60;;;;;;;;;;4507906;28;20038;-66
2022/09/23 08:41:55;;;;;;;2.42;1.50;;;;;;;;;;4507376;28;23687;-66
2022/09/23 08:44:13;;;;;;;1.75;1.60;;;;;;;;;;4507471;28;20030;-66
2022/09/23 08:46:27;;;;;;;1.85;1.40;;;;;;;;;;4490558;28;20787;-66
2022/09/23 08:48:42;;;;;;;1.30;1.20;;;;;;;;;;4508578;28;20100;-67
2022/09/23 08:50:57;;;;;;;1.40;1.30;;;;;;;;;;4509283;28;20026;-66
2022/09/23 08:53:19;;;;;;;2.00;1.50;;;;;;;;;;4508276;28;20141;-66
2022/09/23 08:55:37;;;;;;;1.70;1.60;;;;;;;;;;4510055;28;20046;-66
2022/09/23 08:58:09;;;;;;;1.70;1.35;;;;;;;;;;4507295;28;20144;-66
2022/09/23 09:00:22;;;;;;;1.60;1.50;;;;;;;;;;4507891;28;20105;-68
2022/09/23 09:02:34;;;;;;;1.52;1.42;;;;;;;;;;4506370;28;20620;-67
2022/09/23 09:04:58;;;;;;;1.77;1.40;;;;;;;;;;4490726;28;20109;-68
2022/09/23 09:07:14;;;;;;;1.70;1.50;;;;;;;;;;4505684;28;20129;-67
2022/09/23 09:09:25;;;;;;;1.55;1.45;;;;;;;;;;4508790;28;20029;-67
2022/09/23 09:11:39;;;;;;;1.90;1.50;;;;;;;;;;4498217;28;20034;-67
2022/09/23 09:14:00;;;;;;;1.95;1.50;;;;;;;;;;4506779;28;20033;-67
2022/09/23 09:16:19;;;;;;;1.77;1.58;;;;;;;;;;4492953;28;20128;-66
2022/09/23 09:18:30;;;;;;;1.30;1.20;;;;;;;;;;4507229;28;20617;-66
2022/09/23 09:20:50;;;;;;;1.67;1.42;;;;;;;;;;4509254;28;20049;-66
2022/09/23 09:23:11;;;;;;;1.90;1.70;;;;;;;;;;4509116;28;20037;-66
2022/09/23 09:25:45;;;;;;;2.28;1.70;;;;;;;;;;4507014;28;20030;-68
2022/09/23 09:27:56;;;;;;;1.70;1.50;;;;;;;;;;4501279;28;20041;-66
2022/09/23 09:30:13;;;;;;;2.28;1.30;;;;;;;;;;4509324;28;25971;-67
2022/09/23 09:32:37;;;;;;;1.80;1.45;;;;;;;;;;4502939;28;20034;-66
2022/09/23 09:34:57;;;;;;;1.77;1.40;;;;;;;;;;4489382;28;20105;-67
2022/09/23 09:37:23;;;;;;;1.58;1.30;;;;;;;;;;4507466;28;21191;-66
2022/09/23 09:39:34;;;;;;;2.10;1.30;;;;;;;;;;4501649;28;20136;-66
2022/09/23 09:41:47;;;;;;;1.60;1.35;;;;;;;;;;4495099;28;20045;-67
2022/09/23 09:44:13;;;;;;;1.90;1.40;;;;;;;;;;4510592;28;20041;-66
2022/09/23 09:46:32;;;;;;;1.70;1.40;;;;;;;;;;4467129;28;20027;-66
2022/09/23 09:49:06;;;;;;;1.67;1.38;;;;;;;;;;4506351;28;20044;-66
2022/09/23 09:51:22;;;;;;;1.42;1.20;;;;;;;;;;4490703;28;20045;-66
2022/09/23 09:53:34;;;;;;;1.98;1.60;;;;;;;;;;4477758;28;20085;-66
2022/09/23 09:55:47;;;;;;;2.03;1.70;;;;;;;;;;4500578;28;20100;-66
2022/09/23 09:58:04;;;;;;;2.28;1.50;;;;;;;;;;4492398;28;20658;-66
2022/09/23 10:00:20;;;;;;;1.65;1.30;;;;;;;;;;4511838;28;20048;-66
2022/09/23 10:02:35;;;;;;;1.55;1.20;;;;;;;;;;4511171;28;20054;-66
2022/09/23 10:05:02;;;;;;;3.40;1.50;;;;;;;;;;4510403;28;21059;-66
2022/09/23 10:07:14;;;;;;;1.42;1.27;;;;;;;;;;4510929;28;20038;-66
2022/09/23 10:09:31;;;;;;;1.25;1.15;;;;;;;;;;4509838;28;20030;-66
2022/09/23 10:11:43;;;;;;;1.42;1.30;;;;;;;;;;4509134;28;20614;-67
2022/09/23 10:14:05;;;;;;;1.42;1.10;;;;;;;;;;4507099;28;20050;-67
2022/09/23 10:16:16;;;;;;;1.13;1.02;;;;;;;;;;4478201;28;20026;-66
2022/09/23 10:18:30;;;;;;;1.42;1.10;;;;;;;;;;4501769;28;20046;-66
2022/09/23 10:20:41;;;;;;;1.15;1.02;;;;;;;;;;4479132;28;20038;-66
2022/09/23 10:22:51;;;;;;;1.92;1.10;;;;;;;;;;4493618;28;20551;-66
2022/09/23 10:25:07;;;;;;;1.42;1.00;;;;;;;;;;4496123;28;20121;-65
2022/09/23 10:27:30;;;;;;;1.40;1.20;;;;;;;;;;4508659;28;20039;-66
2022/09/23 10:29:46;;;;;;;1.55;1.08;;;;;;;;;;4504954;28;20021;-66
2022/09/23 10:32:19;;;;;;;1.17;1.00;;;;;;;;;;4510934;28;20030;-63
2022/09/23 10:34:32;;;;;;;1.23;0.93;;;;;;;;;;4511070;28;20042;-63
2022/09/23 10:36:53;;;;;;;1.30;1.10;;;;;;;;;;4502214;28;20036;-63
2022/09/23 10:46:51;;;;;;;1.50;1.10;;;;;;;;;;4511595;28;20742;-63
2022/09/23 10:49:13;;;;;;;2.65;1.50;;;;;;;;;;4511408;28;20608;-63
2022/09/23 10:51:38;;;;;;;1.95;1.15;;;;;;;;;;4510363;28;20091;-65
2022/09/23 10:53:48;;;;;;;5.90;2.38;;;;;;;;;;4511961;28;20033;-65
2022/09/23 10:56:05;;;;;;;3.30;1.70;;;;;;;;;;4502586;28;20022;-65
2022/09/23 10:58:28;;;;;;;0.98;0.88;;;;;;;;;;4494754;28;20049;-65
2022/09/23 11:00:45;;;;;;;1.00;0.85;;;;;;;;;;4504506;28;20037;-66
2022/09/23 11:03:18;;;;;;;2.33;1.30;;;;;;;;;;4495008;28;20044;-66
2022/09/23 11:05:50;;;;;;;2.03;1.30;;;;;;;;;;4509857;28;20673;-66
2022/09/23 11:08:17;;;;;;;1.33;1.05;;;;;;;;;;4501537;28;20592;-65
2022/09/23 11:10:39;;;;;;;1.00;0.90;;;;;;;;;;4495114;28;20140;-66
2022/09/23 11:13:08;;;;;;;1.05;0.88;;;;;;;;;;4509240;28;20237;-66
2022/09/23 11:15:57;;;;;;;1.17;0.88;;;;;;;;;;4508873;28;20857;-66
2022/09/23 11:18:20;;;;;;;1.08;0.82;;;;;;;;;;4508300;28;20038;-66
2022/09/23 11:20:47;;;;;;;1.30;1.17;;;;;;;;;;4509377;28;20066;-66
2022/09/23 11:23:19;;;;;;;1.15;1.00;;;;;;;;;;4502098;28;20113;-66
2022/09/23 11:25:53;;;;;;;1.17;0.98;;;;;;;;;;4493623;28;20038;-67
2022/09/23 11:28:48;;;;;;;1.70;1.08;;;;;;;;;;4500697;28;20391;-66
2022/09/23 11:31:25;;;;;;;1.48;1.00;;;;;;;;;;4497882;28;20046;-66
2022/09/23 11:33:51;;;;;;;1.50;1.10;;;;;;;;;;4510712;28;20633;-66
2022/09/23 11:36:20;;;;;;;1.63;0.93;;;;;;;;;;4508899;28;20053;-67
2022/09/23 11:38:41;;;;;;;1.60;1.17;;;;;;;;;;4510352;28;20042;-66
2022/09/23 11:40:59;;;;;;;1.50;1.10;;;;;;;;;;4507659;28;20021;-66
2022/09/23 11:43:24;;;;;;;1.60;1.27;;;;;;;;;;4507611;28;20049;-66
2022/09/23 11:45:40;;;;;;;1.63;1.20;;;;;;;;;;4508542;28;20041;-66
2022/09/23 11:47:55;;;;;;;2.78;2.30;;;;;;;;;;4491655;28;20034;-66
2022/09/23 11:50:19;;;;;;;2.03;1.20;;;;;;;;;;4507566;28;20034;-65
2022/09/23 11:52:41;;;;;;;1.00;0.90;;;;;;;;;;4508569;28;20649;-66
2022/09/23 11:54:58;;;;;;;1.30;1.20;;;;;;;;;;4503555;28;20088;-65
2022/09/23 11:57:25;;;;;;;1.02;0.80;;;;;;;;;;4509275;28;20043;-65
2022/09/23 11:59:46;;;;;;;0.90;0.90;;;;;;;;;;4507637;28;20030;-66
2022/09/23 12:02:03;;;;;;;1.58;1.20;;;;;;;;;;4495913;28;20049;-67
2022/09/23 12:04:39;;;;;;;1.27;1.00;;;;;;;;;;4510754;28;20590;-64
2022/09/23 12:06:54;;;;;;;1.10;0.90;;;;;;;;;;4476109;28;20046;-64
2022/09/23 12:09:14;;;;;;;0.93;0.85;;;;;;;;;;4509470;28;20187;-64
2022/09/23 12:11:42;;;;;;;1.75;1.08;;;;;;;;;;4491245;28;20038;-64
2022/09/23 12:14:18;;;;;;;2.15;0.98;;;;;;;;;;4508134;28;20037;-64
2022/09/23 12:16:28;;;;;;;0.80;0.80;;;;;;;;;;4492319;28;20173;-64
2022/09/23 12:18:47;;;;;;;0.90;0.80;;;;;;;;;;4503752;28;20041;-65
2022/09/23 12:21:15;;;;;;;1.02;0.85;;;;;;;;;;4511181;28;20034;-64
2022/09/23 12:23:43;;;;;;;0.75;0.75;;;;;;;;;;4509677;28;20048;-64
2022/09/23 12:25:56;;;;;;;1.35;0.80;;;;;;;;;;4508644;28;20026;-64
2022/09/23 12:28:13;;;;;;;0.90;0.80;;;;;;;;;;4508746;28;20041;-66
2022/09/23 12:30:26;;;;;;;1.02;0.80;;;;;;;;;;4510541;28;20139;-64
2022/09/23 12:32:37;;;;;;;1.08;0.90;;;;;;;;;;4494685;28;20073;-64
2022/09/23 12:34:50;;;;;;;0.95;0.80;;;;;;;;;;4509399;28;20139;-64
2022/09/23 12:37:04;;;;;;;1.25;0.82;;;;;;;;;;4487117;28;20050;-64
2022/09/23 12:39:26;;;;;;;1.08;0.80;;;;;;;;;;4494108;28;20060;-64
2022/09/23 12:41:39;;;;;;;1.10;1.00;;;;;;;;;;4506963;28;20041;-64
2022/09/23 12:43:55;;;;;;;1.17;1.00;;;;;;;;;;4507112;28;20033;-64
2022/09/23 12:46:24;;;;;;;1.00;0.90;;;;;;;;;;4509076;28;20902;-65
2022/09/23 12:48:59;;;;;;;1.13;0.90;;;;;;;;;;4506146;28;20038;-64
2022/09/23 12:51:18;;;;;;;1.20;1.00;;;;;;;;;;4493001;28;20645;-64
2022/09/23 12:53:34;;;;;;;1.05;0.80;;;;;;;;;;4510832;28;20142;-64
2022/09/23 12:55:45;;;;;;;0.80;0.80;;;;;;;;;;4509539;28;20194;-64
2022/09/23 12:57:58;;;;;;;1.48;0.90;;;;;;;;;;4493205;28;20038;-64
2022/09/23 13:00:22;;;;;;;0.75;0.75;;;;;;;;;;4491036;28;20137;-65
2022/09/23 13:02:35;;;;;;;1.10;1.00;;;;;;;;;;4508412;28;20099;-65
2022/09/23 13:07:26;;;;;;;1.27;1.10;;;;;;;;;;4508620;28;20093;-65
2022/09/23 13:09:39;;;;;;;0.88;0.80;;;;;;;;;;4509446;28;20034;-65
2022/09/23 13:11:51;;;;;;;1.20;1.00;;;;;;;;;;4508941;28;20037;-65
2022/09/23 13:14:03;;;;;;;1.10;1.00;;;;;;;;;;4507857;28;20042;-65
2022/09/23 13:16:32;;;;;;;1.08;0.95;;;;;;;;;;4493023;28;20119;-65
2022/09/23 13:18:53;;;;;;;1.40;1.20;;;;;;;;;;4506836;28;20030;-66
2022/09/23 13:21:14;;;;;;;1.30;1.20;;;;;;;;;;4493830;28;20061;-66
2022/09/23 13:23:32;;;;;;;1.02;0.93;;;;;;;;;;4507657;28;20045;-66
2022/09/23 13:25:42;;;;;;;1.85;1.15;;;;;;;;;;4506844;28;20046;-66
2022/09/23 13:27:55;;;;;;;1.40;1.10;;;;;;;;;;4507751;28;20278;-66
2022/09/23 13:30:16;;;;;;;1.05;0.95;;;;;;;;;;4481564;28;20111;-66
2022/09/23 13:32:39;;;;;;;1.30;0.80;;;;;;;;;;4481162;28;20607;-66
2022/09/23 13:35:11;;;;;;;1.40;1.00;;;;;;;;;;4493808;28;20880;-66
2022/09/23 13:37:27;;;;;;;1.00;0.90;;;;;;;;;;4512224;28;20594;-66
2022/09/23 13:39:37;;;;;;;1.23;1.05;;;;;;;;;;4496478;28;20229;-66
2022/09/23 13:41:48;;;;;;;1.02;0.93;;;;;;;;;;4510823;28;20053;-66
2022/09/23 13:43:58;;;;;;;1.88;1.00;;;;;;;;;;4505461;28;20045;-66
2022/09/23 13:46:12;;;;;;;1.30;0.98;;;;;;;;;;4497144;28;20492;-66